createdAt,value
2023-03-18T00:00:11.617Z,100943.03
2023-03-18T00:02:40.270Z,100953.63
2023-03-18T00:05:08.424Z,100956.09
2023-03-18T00:07:36.222Z,100951.78
2023-03-18T00:10:04.069Z,100960.78
2023-03-18T00:12:31.259Z,100963.63
2023-03-18T00:14:57.749Z,100969.50
2023-03-18T00:17:24.202Z,100971.75
2023-03-18T00:19:50.957Z,100966.16
2023-03-18T00:22:17.580Z,100973.69
2023-03-18T00:24:44.076Z,100971.44
2023-03-18T00:27:10.540Z,100973.50
2023-03-18T00:29:37.726Z,100970.75
2023-03-18T00:32:04.404Z,100974.38
2023-03-18T00:34:30.893Z,100967.50
2023-03-18T00:36:57.624Z,100977.66
2023-03-18T00:39:29.755Z,100985.84
2023-03-18T00:41:57.149Z,100975.56
2023-03-18T00:44:26.243Z,100981.91
2023-03-18T00:46:52.900Z,100986.84
2023-03-18T00:49:19.878Z,100980.88
2023-03-18T00:51:46.730Z,100971.06
2023-03-18T00:54:17.961Z,100971.44
2023-03-18T00:56:44.594Z,100974.19
2023-03-18T00:59:11.890Z,100975.13
2023-03-18T01:01:39.116Z,100978.50
2023-03-18T01:04:06.820Z,100968.91
2023-03-18T01:06:35.902Z,100973.47
2023-03-18T01:09:05.005Z,100966.50
2023-03-18T01:11:33.318Z,100972.56
2023-03-18T01:14:00.584Z,100967.78
2023-03-18T01:16:27.498Z,100974.81
2023-03-18T01:18:54.054Z,100966.31
2023-03-18T01:21:21.057Z,100966.50
2023-03-18T01:23:47.504Z,100977.59
2023-03-18T01:26:14.608Z,100977.75
2023-03-18T01:28:42.248Z,100982.63
2023-03-18T01:31:09.186Z,100985.56
2023-03-18T01:33:36.649Z,100978.22
2023-03-18T01:36:05.008Z,100972.72
2023-03-18T01:38:32.170Z,100977.22
2023-03-18T01:41:00.446Z,100971.28
2023-03-18T01:43:37.046Z,100976.94
2023-03-18T01:46:44.842Z,100976.69
2023-03-18T01:49:16.308Z,100984.53
2023-03-18T01:51:48.160Z,100984.16
2023-03-18T01:54:16.534Z,100977.69
2023-03-18T01:56:45.874Z,100980.50
2023-03-18T01:59:13.964Z,100979.94
2023-03-18T02:01:48.214Z,100985.16
2023-03-18T02:04:18.347Z,100988.00
2023-03-18T02:06:45.214Z,100983.53
2023-03-18T02:09:13.057Z,100977.84
2023-03-18T02:11:43.796Z,100979.50
2023-03-18T02:14:14.866Z,100980.59
2023-03-18T02:16:51.114Z,100989.66
2023-03-18T02:19:39.455Z,100992.97
2023-03-18T02:22:08.676Z,100992.78
2023-03-18T02:24:35.066Z,100990.31
2023-03-18T02:27:12.435Z,100989.03
2023-03-18T02:29:42.225Z,100984.72
2023-03-18T02:32:10.055Z,100990.03
2023-03-18T02:34:38.659Z,100985.72
2023-03-18T02:37:07.860Z,100985.53
2023-03-18T02:39:35.715Z,100985.38
2023-03-18T02:42:02.547Z,100989.03
2023-03-18T02:44:29.225Z,100992.03
2023-03-18T02:47:02.900Z,100996.44
2023-03-18T02:49:31.054Z,100995.16
2023-03-18T02:51:57.579Z,100996.50
2023-03-18T02:54:26.971Z,100994.84
2023-03-18T02:56:54.025Z,100998.16
2023-03-18T02:59:21.793Z,101004.75
2023-03-18T03:01:50.738Z,101005.56
2023-03-18T03:04:17.761Z,100997.59
2023-03-18T03:06:45.076Z,100996.97
2023-03-18T03:09:15.305Z,100999.63
2023-03-18T03:11:43.374Z,101004.28
2023-03-18T03:14:11.489Z,101016.81
2023-03-18T03:16:37.995Z,101017.16
2023-03-18T03:19:06.030Z,101003.25
2023-03-18T03:21:33.570Z,101011.50
2023-03-18T03:24:00.193Z,101014.16
2023-03-18T03:26:27.114Z,101009.41
2023-03-18T03:28:53.608Z,101020.47
2023-03-18T03:31:20.116Z,101010.84
2023-03-18T03:33:46.603Z,101021.13
2023-03-18T03:36:16.403Z,101023.41
2023-03-18T03:38:43.539Z,101018.75
2023-03-18T03:41:12.231Z,101023.88
2023-03-18T03:43:40.404Z,101032.13
2023-03-18T03:46:08.226Z,101024.63
2023-03-18T03:48:34.973Z,101036.53
2023-03-18T03:51:02.213Z,101031.03
2023-03-18T03:53:28.983Z,101023.91
2023-03-18T03:55:59.000Z,101027.00
2023-03-18T03:58:26.375Z,101023.56
2023-03-18T04:00:52.880Z,101031.97
2023-03-18T04:03:19.695Z,101032.81
2023-03-18T04:05:46.331Z,101033.16
2023-03-18T04:08:12.854Z,101043.06
2023-03-18T04:10:39.992Z,101039.13
2023-03-18T04:13:06.893Z,101032.63
2023-03-18T04:15:33.676Z,101035.75
2023-03-18T04:18:04.944Z,101045.38
2023-03-18T04:20:31.927Z,101039.84
2023-03-18T04:22:58.612Z,101044.81
2023-03-18T04:25:25.308Z,101042.34
2023-03-18T04:27:52.770Z,101046.00
2023-03-18T04:30:20.677Z,101052.97
2023-03-18T04:32:47.148Z,101042.72
2023-03-18T04:35:14.226Z,101045.53
2023-03-18T04:37:40.641Z,101051.31
2023-03-18T04:40:07.610Z,101045.38
2023-03-18T04:42:34.104Z,101048.03
2023-03-18T04:45:01.807Z,101039.22
2023-03-18T04:47:28.321Z,101034.25
2023-03-18T04:49:54.989Z,101045.09
2023-03-18T04:52:21.583Z,101046.25
2023-03-18T04:54:48.086Z,101043.16
2023-03-18T04:57:14.676Z,101047.81
2023-03-18T04:59:41.728Z,101055.78
2023-03-18T05:02:08.986Z,101054.13
2023-03-18T05:04:36.398Z,101054.28
2023-03-18T05:07:02.905Z,101050.19
2023-03-18T05:09:29.421Z,101056.31
2023-03-18T05:11:55.919Z,101063.16
2023-03-18T05:14:22.510Z,101059.56
2023-03-18T05:16:49.367Z,101059.94
2023-03-18T05:19:18.280Z,101069.56
2023-03-18T05:21:45.098Z,101079.31
2023-03-18T05:24:11.535Z,101082.97
2023-03-18T05:26:38.824Z,101085.03
2023-03-18T05:29:05.399Z,101076.41
2023-03-18T05:31:31.965Z,101079.72
2023-03-18T05:33:58.570Z,101083.81
2023-03-18T05:36:25.261Z,101088.13
2023-03-18T05:38:51.729Z,101094.72
2023-03-18T05:41:18.295Z,101080.81
2023-03-18T05:43:44.765Z,101079.63
2023-03-18T05:46:11.694Z,101088.88
2023-03-18T05:48:38.314Z,101091.72
2023-03-18T05:51:05.965Z,101093.38
2023-03-18T05:53:32.718Z,101098.97
2023-03-18T05:55:59.939Z,101095.31
2023-03-18T05:58:31.158Z,101095.31
2023-03-18T06:00:58.914Z,101095.97
2023-03-18T06:03:25.766Z,101099.06
2023-03-18T06:05:52.935Z,101102.56
2023-03-18T06:08:19.508Z,101106.88
2023-03-18T06:10:45.992Z,101106.88
2023-03-18T06:13:12.532Z,101106.69
2023-03-18T06:15:39.112Z,101117.97
2023-03-18T06:18:05.680Z,101111.19
2023-03-18T06:20:32.230Z,101109.19
2023-03-18T06:22:58.713Z,101108.81
2023-03-18T06:25:26.372Z,101105.16
2023-03-18T06:27:53.106Z,101116.44
2023-03-18T06:30:19.720Z,101127.06
2023-03-18T06:32:46.335Z,101134.19
2023-03-18T06:35:15.504Z,101138.31
2023-03-18T06:37:42.721Z,101151.25
2023-03-18T06:40:12.278Z,101149.41
2023-03-18T06:42:39.334Z,101149.25
2023-03-18T06:45:07.527Z,101144.22
2023-03-18T06:47:34.409Z,101145.50
2023-03-18T06:50:01.613Z,101147.25
2023-03-18T06:52:28.294Z,101148.38
2023-03-18T06:54:54.870Z,101156.00
2023-03-18T06:57:21.656Z,101142.72
2023-03-18T06:59:48.207Z,101144.00
2023-03-18T07:02:15.495Z,101155.28
2023-03-18T07:04:42.366Z,101163.41
2023-03-18T07:07:09.068Z,101167.19
2023-03-18T07:09:36.391Z,101161.88
2023-03-18T07:12:03.310Z,101171.16
2023-03-18T07:14:30.699Z,101170.94
2023-03-18T07:16:57.279Z,101173.97
2023-03-18T07:19:23.955Z,101180.13
2023-03-18T07:21:50.982Z,101178.84
2023-03-18T07:24:17.568Z,101177.72
2023-03-18T07:26:44.016Z,101183.88
2023-03-18T07:29:10.510Z,101190.34
2023-03-18T07:31:37.147Z,101194.84
2023-03-18T07:34:04.829Z,101188.69
2023-03-18T07:36:31.886Z,101193.28
2023-03-18T07:38:59.897Z,101202.03
2023-03-18T07:41:26.685Z,101191.34
2023-03-18T07:43:53.649Z,101200.31
2023-03-18T07:46:20.272Z,101199.06
2023-03-18T07:48:46.829Z,101196.13
2023-03-18T07:51:15.119Z,101200.28
2023-03-18T07:53:42.384Z,101206.69
2023-03-18T07:56:10.013Z,101199.16
2023-03-18T07:58:37.592Z,101199.28
2023-03-18T08:01:04.429Z,101205.88
2023-03-18T08:03:31.019Z,101200.66
2023-03-18T08:05:57.848Z,101198.72
2023-03-18T08:08:24.941Z,101206.59
2023-03-18T08:10:52.344Z,101202.25
2023-03-18T08:13:19.020Z,101203.16
2023-03-18T08:15:45.506Z,101197.47
2023-03-18T08:18:11.963Z,101198.38
2023-03-18T08:20:38.468Z,101200.28
2023-03-18T08:23:05.165Z,101203.47
2023-03-18T08:25:32.727Z,101208.69
2023-03-18T08:27:59.656Z,101200.78
2023-03-18T08:30:28.694Z,101196.34
2023-03-18T08:32:56.026Z,101191.91
2023-03-18T08:35:23.460Z,101199.38
2023-03-18T08:37:51.591Z,101187.78
2023-03-18T08:40:18.505Z,101195.38
2023-03-18T08:42:45.279Z,101196.63
2023-03-18T08:45:12.386Z,101189.72
2023-03-18T08:47:39.500Z,101196.63
2023-03-18T08:50:06.536Z,101194.59
2023-03-18T08:52:33.030Z,101188.91
2023-03-18T08:54:59.792Z,101199.63
2023-03-18T08:57:27.952Z,101200.75
2023-03-18T08:59:54.509Z,101198.81
2023-03-18T09:02:21.634Z,101200.31
2023-03-18T09:04:48.317Z,101194.78
2023-03-18T09:07:16.386Z,101189.34
2023-03-18T09:09:44.644Z,101203.28
2023-03-18T09:12:14.840Z,101208.78
2023-03-18T09:14:43.536Z,101209.72
2023-03-18T09:17:10.088Z,101209.69
2023-03-18T09:19:37.469Z,101208.31
2023-03-18T09:22:04.435Z,101211.25
2023-03-18T09:24:31.647Z,101218.19
2023-03-18T09:26:59.839Z,101221.47
2023-03-18T09:29:27.681Z,101225.59
2023-03-18T09:31:54.291Z,101222.78
2023-03-18T09:34:20.785Z,101230.53
2023-03-18T09:36:51.096Z,101228.94
2023-03-18T09:39:21.257Z,101236.06
2023-03-18T09:42:00.671Z,101233.69
2023-03-18T09:44:33.700Z,101230.84
2023-03-18T09:47:21.319Z,101244.19
2023-03-18T09:50:09.323Z,101245.22
2023-03-18T09:52:43.839Z,101246.63
2023-03-18T09:55:41.129Z,101245.44
2023-03-18T09:58:35.854Z,101251.25
2023-03-18T10:01:06.488Z,101242.41
2023-03-18T10:03:54.391Z,101246.31
2023-03-18T10:06:23.768Z,101251.75
2023-03-18T10:08:52.944Z,101249.75
2023-03-18T10:11:19.503Z,101245.84
2023-03-18T10:13:54.959Z,101249.19
2023-03-18T10:16:27.091Z,101251.50
2023-03-18T10:18:54.944Z,101240.84
2023-03-18T10:21:36.424Z,101242.69
2023-03-18T10:24:27.540Z,101242.91
2023-03-18T10:27:15.268Z,101253.63
2023-03-18T10:30:04.194Z,101239.19
2023-03-18T10:32:50.591Z,101237.97
2023-03-18T10:35:36.775Z,101237.38
2023-03-18T10:38:10.807Z,101240.47
2023-03-18T10:40:39.751Z,101245.81
2023-03-18T10:43:16.835Z,101240.00
2023-03-18T10:45:45.237Z,101240.81
2023-03-18T10:48:35.542Z,101240.84
2023-03-18T10:51:37.106Z,101231.38
2023-03-18T10:54:15.793Z,101231.41
2023-03-18T10:56:43.051Z,101232.81
2023-03-18T10:59:16.303Z,101221.25
2023-03-18T11:01:54.191Z,101222.44
2023-03-18T11:04:23.762Z,101214.25
2023-03-18T11:07:01.634Z,101224.97
2023-03-18T11:09:36.648Z,101229.53
2023-03-18T11:12:14.155Z,101224.97
2023-03-18T11:14:42.278Z,101227.53
2023-03-18T11:17:31.207Z,101226.50
2023-03-18T11:20:11.069Z,101228.34
2023-03-18T11:22:44.474Z,101228.78
2023-03-18T11:25:11.491Z,101235.19
2023-03-18T11:27:45.871Z,101230.06
2023-03-18T11:30:33.288Z,101234.38
2023-03-18T11:33:14.743Z,101232.13
2023-03-18T11:35:47.195Z,101232.19
2023-03-18T11:38:28.857Z,101239.41
2023-03-18T11:41:22.326Z,101236.13
2023-03-18T11:44:19.232Z,101239.84
2023-03-18T11:46:59.059Z,101239.22
2023-03-18T11:49:28.648Z,101232.81
2023-03-18T11:52:09.559Z,101237.56
2023-03-18T11:54:42.198Z,101232.84
2023-03-18T11:57:45.532Z,101231.81
2023-03-18T12:00:33.523Z,101226.41
2023-03-18T12:03:10.469Z,101232.59
2023-03-18T12:05:48.573Z,101226.63
2023-03-18T12:08:35.051Z,101223.91
2023-03-18T12:11:20.036Z,101227.00
2023-03-18T12:14:02.232Z,101211.72
2023-03-18T12:16:44.913Z,101209.38
2023-03-18T12:19:29.373Z,101222.28
2023-03-18T12:22:26.543Z,101216.84
2023-03-18T12:24:58.557Z,101211.53
2023-03-18T12:27:48.385Z,101212.16
2023-03-18T12:30:34.055Z,101222.31
2023-03-18T12:33:21.369Z,101225.63
2023-03-18T12:36:06.933Z,101227.19
2023-03-18T12:38:55.039Z,101233.19
2023-03-18T12:41:29.441Z,101231.34
2023-03-18T12:44:06.053Z,101227.44
2023-03-18T12:46:40.334Z,101232.59
2023-03-18T12:49:31.175Z,101230.16
2023-03-18T12:52:04.314Z,101236.16
2023-03-18T12:54:45.012Z,101235.53
2023-03-18T12:57:22.093Z,101231.44
2023-03-18T12:59:57.923Z,101225.84
2023-03-18T13:02:38.261Z,101233.25
2023-03-18T13:05:18.474Z,101233.25
2023-03-18T13:07:51.525Z,101231.38
2023-03-18T13:10:25.290Z,101233.84
2023-03-18T13:12:55.547Z,101230.34
2023-03-18T13:15:35.838Z,101221.53
2023-03-18T13:18:17.049Z,101233.44
2023-03-18T13:20:45.761Z,101230.78
2023-03-18T13:23:28.845Z,101231.38
2023-03-18T13:26:10.608Z,101227.66
2023-03-18T13:29:01.034Z,101233.03
2023-03-18T13:31:36.653Z,101236.28
2023-03-18T13:34:36.899Z,101232.56
2023-03-18T13:37:26.857Z,101241.97
2023-03-18T13:40:27.501Z,101242.41
2023-03-18T13:42:59.210Z,101234.25
2023-03-18T13:45:31.334Z,101233.03
2023-03-18T13:48:33.985Z,101236.53
2023-03-18T13:51:20.692Z,101235.13
2023-03-18T13:53:50.587Z,101233.03
2023-03-18T13:56:36.194Z,101228.72
2023-03-18T13:59:07.376Z,101236.34
2023-03-18T14:01:36.452Z,101222.13
2023-03-18T14:04:32.339Z,101215.34
2023-03-18T14:07:19.347Z,101218.66
2023-03-18T14:10:18.289Z,101217.81
2023-03-18T14:12:47.470Z,101206.50
2023-03-18T14:15:14.780Z,101203.19
2023-03-18T14:17:58.648Z,101213.66
2023-03-18T14:20:38.638Z,101201.31
2023-03-18T14:23:39.129Z,101207.91
2023-03-18T14:26:26.998Z,101203.34
2023-03-18T14:28:55.446Z,101205.81
2023-03-18T14:31:34.747Z,101197.16
2023-03-18T14:34:05.070Z,101205.19
2023-03-18T14:36:43.858Z,101198.00
2023-03-18T14:39:17.900Z,101192.22
2023-03-18T14:41:48.789Z,101195.31
2023-03-18T14:44:36.048Z,101187.72
2023-03-18T14:47:31.955Z,101173.91
2023-03-18T14:50:13.010Z,101183.97
2023-03-18T14:52:42.852Z,101169.97
2023-03-18T14:55:18.378Z,101163.75
2023-03-18T14:57:46.385Z,101151.09
2023-03-18T15:00:17.469Z,101153.66
2023-03-18T15:02:45.121Z,101152.41
2023-03-18T15:05:17.870Z,101147.00
2023-03-18T15:07:50.072Z,101148.53
2023-03-18T15:10:22.433Z,101143.00
2023-03-18T15:13:15.406Z,101146.03
2023-03-18T15:15:42.738Z,101137.72
2023-03-18T15:18:18.559Z,101146.03
2023-03-18T15:20:49.401Z,101139.75
2023-03-18T15:23:18.558Z,101130.63
2023-03-18T15:25:45.147Z,101127.94
2023-03-18T15:28:19.573Z,101145.56
2023-03-18T15:30:57.813Z,101124.13
2023-03-18T15:33:30.284Z,101132.88
2023-03-18T15:36:03.473Z,101139.44
2023-03-18T15:38:31.853Z,101128.47
2023-03-18T15:41:07.319Z,101122.94
2023-03-18T15:43:40.169Z,101117.63
2023-03-18T15:46:19.240Z,101117.56
2023-03-18T15:48:54.476Z,101120.63
2023-03-18T15:51:38.608Z,101122.38
2023-03-18T15:54:15.363Z,101122.53
2023-03-18T15:56:49.996Z,101120.09
2023-03-18T15:59:26.211Z,101122.84
2023-03-18T16:01:57.108Z,101124.06
2023-03-18T16:04:24.893Z,101110.78
2023-03-18T16:06:54.941Z,101106.56
2023-03-18T16:09:23.951Z,101115.50
2023-03-18T16:12:08.607Z,101118.41
2023-03-18T16:14:40.897Z,101118.63
2023-03-18T16:17:07.472Z,101115.50
2023-03-18T16:19:34.007Z,101119.28
2023-03-18T16:22:00.510Z,101119.75
2023-03-18T16:24:27.365Z,101122.38
2023-03-18T16:26:55.106Z,101140.91
2023-03-18T16:29:29.772Z,101125.44
2023-03-18T16:31:57.021Z,101131.28
2023-03-18T16:34:23.943Z,101122.00
2023-03-18T16:36:52.004Z,101128.22
2023-03-18T16:39:34.010Z,101131.22
2023-03-18T16:42:05.104Z,101142.66
2023-03-18T16:44:34.738Z,101132.41
2023-03-18T16:47:02.372Z,101126.63
2023-03-18T16:49:34.375Z,101131.22
2023-03-18T16:52:03.714Z,101122.81
2023-03-18T16:54:33.308Z,101134.25
2023-03-18T16:57:03.057Z,101134.13
2023-03-18T16:59:33.616Z,101146.75
2023-03-18T17:02:00.708Z,101136.22
2023-03-18T17:04:32.983Z,101146.63
2023-03-18T17:07:01.811Z,101141.88
2023-03-18T17:09:28.394Z,101140.94
2023-03-18T17:12:06.207Z,101154.97
2023-03-18T17:14:46.813Z,101152.69
2023-03-18T17:17:19.692Z,101150.31
2023-03-18T17:19:46.422Z,101147.72
2023-03-18T17:22:24.365Z,101150.47
2023-03-18T17:24:51.086Z,101140.66
2023-03-18T17:27:30.032Z,101143.44
2023-03-18T17:29:56.581Z,101139.16
2023-03-18T17:32:23.217Z,101137.09
2023-03-18T17:34:51.901Z,101145.56
2023-03-18T17:37:20.229Z,101154.22
2023-03-18T17:39:47.451Z,101153.81
2023-03-18T17:42:26.113Z,101154.44
2023-03-18T17:44:53.099Z,101142.44
2023-03-18T17:47:19.666Z,101151.47
2023-03-18T17:49:46.156Z,101149.59
2023-03-18T17:52:17.700Z,101152.81
2023-03-18T17:54:44.662Z,101148.28
2023-03-18T17:57:15.453Z,101161.97
2023-03-18T17:59:42.209Z,101157.81
2023-03-18T18:02:15.542Z,101166.41
2023-03-18T18:04:43.236Z,101170.50
2023-03-18T18:07:18.037Z,101166.53
2023-03-18T18:09:45.135Z,101174.88
2023-03-18T18:12:21.409Z,101176.91
2023-03-18T18:14:47.928Z,101179.09
2023-03-18T18:17:15.696Z,101176.31
2023-03-18T18:19:42.936Z,101178.75
2023-03-18T18:22:21.881Z,101173.91
2023-03-18T18:24:48.754Z,101174.84
2023-03-18T18:27:15.731Z,101180.53
2023-03-18T18:29:46.019Z,101183.31
2023-03-18T18:32:12.862Z,101180.41
2023-03-18T18:34:39.324Z,101176.22
2023-03-18T18:37:05.889Z,101182.75
2023-03-18T18:39:32.390Z,101181.50
2023-03-18T18:41:59.161Z,101174.81
2023-03-18T18:44:26.052Z,101180.13
2023-03-18T18:46:52.545Z,101198.16
2023-03-18T18:49:22.951Z,101180.50
2023-03-18T18:51:54.790Z,101188.13
2023-03-18T18:54:24.511Z,101186.47
2023-03-18T18:56:51.322Z,101189.59
2023-03-18T18:59:22.878Z,101182.63
2023-03-18T19:01:53.305Z,101183.44
2023-03-18T19:04:21.672Z,101187.31
2023-03-18T19:06:51.696Z,101195.03
2023-03-18T19:09:20.924Z,101188.88
2023-03-18T19:11:48.536Z,101195.59
2023-03-18T19:14:19.536Z,101182.66
2023-03-18T19:16:47.112Z,101183.66
2023-03-18T19:19:17.796Z,101181.22
2023-03-18T19:21:44.833Z,101178.34
2023-03-18T19:24:28.464Z,101182.59
2023-03-18T19:26:57.531Z,101182.75
2023-03-18T19:29:25.078Z,101179.66
2023-03-18T19:31:51.747Z,101180.47
2023-03-18T19:34:19.382Z,101179.84
2023-03-18T19:36:52.998Z,101176.91
2023-03-18T19:39:22.026Z,101186.38
2023-03-18T19:41:49.130Z,101181.44
2023-03-18T19:44:19.277Z,101195.19
2023-03-18T19:46:47.861Z,101202.34
2023-03-18T19:49:20.786Z,101198.84
2023-03-18T19:51:47.448Z,101218.66
2023-03-18T19:54:35.451Z,101235.44
2023-03-18T19:57:27.496Z,101247.00
2023-03-18T19:59:56.437Z,101235.84
2023-03-18T20:02:25.724Z,101233.69
2023-03-18T20:04:54.458Z,101242.34
2023-03-18T20:07:23.248Z,101234.34
2023-03-18T20:09:50.168Z,101243.22
2023-03-18T20:12:27.930Z,101258.47
2023-03-18T20:14:54.554Z,101254.72
2023-03-18T20:17:24.032Z,101263.78
2023-03-18T20:19:50.518Z,101266.84
2023-03-18T20:22:26.993Z,101279.28
2023-03-18T20:24:53.955Z,101279.47
2023-03-18T20:27:21.153Z,101270.38
2023-03-18T20:29:47.971Z,101274.34
2023-03-18T20:32:14.479Z,101274.59
2023-03-18T20:34:41.606Z,101271.16
2023-03-18T20:37:16.805Z,101260.44
2023-03-18T20:39:43.253Z,101256.28
2023-03-18T20:42:17.060Z,101251.81
2023-03-18T20:44:45.224Z,101262.47
2023-03-18T20:47:13.379Z,101248.50
2023-03-18T20:49:44.461Z,101254.84
2023-03-18T20:52:25.907Z,101255.19
2023-03-18T20:54:52.849Z,101247.59
2023-03-18T20:57:19.548Z,101250.41
2023-03-18T20:59:47.326Z,101251.50
2023-03-18T21:02:32.724Z,101248.84
2023-03-18T21:05:01.583Z,101255.34
2023-03-18T21:07:28.972Z,101259.19
2023-03-18T21:09:55.687Z,101259.53
2023-03-18T21:12:22.783Z,101263.19
2023-03-18T21:14:50.107Z,101266.88
2023-03-18T21:17:21.719Z,101259.44
2023-03-18T21:19:49.131Z,101258.59
2023-03-18T21:22:23.316Z,101263.91
2023-03-18T21:24:50.466Z,101259.44
2023-03-18T21:27:26.776Z,101257.16
2023-03-18T21:29:54.820Z,101255.28
2023-03-18T21:32:28.531Z,101262.09
2023-03-18T21:34:55.868Z,101262.28
2023-03-18T21:37:24.766Z,101257.59
2023-03-18T21:39:51.583Z,101256.94
2023-03-18T21:42:22.810Z,101261.25
2023-03-18T21:44:50.441Z,101256.94
2023-03-18T21:47:19.203Z,101249.97
2023-03-18T21:49:46.898Z,101248.97
2023-03-18T21:52:32.228Z,101245.16
2023-03-18T21:54:59.923Z,101250.28
2023-03-18T21:57:26.411Z,101246.44
2023-03-18T21:59:53.841Z,101251.41
2023-03-18T22:02:34.258Z,101253.41
2023-03-18T22:05:03.486Z,101242.13
2023-03-18T22:07:32.013Z,101242.78
2023-03-18T22:10:00.623Z,101245.06
2023-03-18T22:12:29.894Z,101251.41
2023-03-18T22:14:56.861Z,101244.44
2023-03-18T22:17:31.561Z,101242.41
2023-03-18T22:20:00.608Z,101231.41
2023-03-18T22:22:36.716Z,101230.41
2023-03-18T22:25:04.101Z,101224.63
2023-03-18T22:27:31.483Z,101223.25
2023-03-18T22:29:59.951Z,101228.56
2023-03-18T22:32:26.343Z,101223.88
2023-03-18T22:34:55.288Z,101227.41
2023-03-18T22:37:23.688Z,101222.88
2023-03-18T22:39:51.080Z,101225.38
2023-03-18T22:42:23.710Z,101231.50
2023-03-18T22:44:50.893Z,101237.66
2023-03-18T22:47:22.461Z,101224.38
2023-03-18T22:49:49.939Z,101223.09
2023-03-18T22:52:29.052Z,101221.44
2023-03-18T22:55:01.113Z,101215.47
2023-03-18T22:57:28.721Z,101221.16
2023-03-18T22:59:56.563Z,101241.41
2023-03-18T23:02:26.467Z,101233.78
2023-03-18T23:04:55.534Z,101233.78
2023-03-18T23:07:28.793Z,101230.50
2023-03-18T23:09:57.326Z,101234.44
2023-03-18T23:12:25.757Z,101234.09
2023-03-18T23:14:53.113Z,101241.22
2023-03-18T23:17:22.639Z,101231.78
2023-03-18T23:19:49.981Z,101243.72
2023-03-18T23:22:24.850Z,101242.06
2023-03-18T23:24:52.860Z,101236.09
2023-03-18T23:27:21.112Z,101241.06
2023-03-18T23:29:47.936Z,101239.41
2023-03-18T23:32:16.134Z,101239.41
2023-03-18T23:34:42.737Z,101234.09
2023-03-18T23:37:10.541Z,101242.06
2023-03-18T23:39:46.202Z,101244.72
2023-03-18T23:42:17.607Z,101239.75
2023-03-18T23:44:44.353Z,101235.44
2023-03-18T23:47:12.498Z,101245.59
2023-03-18T23:49:39.736Z,101250.75
2023-03-18T23:52:12.809Z,101254.78
2023-03-18T23:54:39.874Z,101241.47
2023-03-18T23:57:09.537Z,101240.34
2023-03-18T23:59:36.562Z,101241.56
